createdAt,value
2022-11-06T00:01:11.498Z,8.10
2022-11-06T00:03:45.026Z,8.10
2022-11-06T00:06:37.878Z,8.12
2022-11-06T00:09:12.719Z,8.06
2022-11-06T00:11:46.047Z,8.06
2022-11-06T00:14:21.202Z,8.05
2022-11-06T00:16:53.978Z,8.05
2022-11-06T00:19:26.786Z,8.01
2022-11-06T00:21:59.348Z,8.03
2022-11-06T00:24:40.930Z,8.02
2022-11-06T00:27:13.639Z,8.02
2022-11-06T00:29:46.290Z,8.00
2022-11-06T00:32:19.129Z,7.99
2022-11-06T00:34:52.133Z,7.98
2022-11-06T00:37:32.544Z,7.92
2022-11-06T00:40:05.637Z,7.96
2022-11-06T00:42:38.468Z,7.95
2022-11-06T00:45:14.438Z,7.92
2022-11-06T00:47:45.058Z,7.93
2022-11-06T00:50:18.319Z,7.89
2022-11-06T00:52:50.838Z,7.90
2022-11-06T00:55:23.319Z,7.92
2022-11-06T00:57:56.098Z,7.92
2022-11-06T01:00:29.039Z,7.90
2022-11-06T01:03:01.681Z,7.86
2022-11-06T01:05:34.462Z,7.85
2022-11-06T01:08:08.499Z,7.86
2022-11-06T01:10:42.019Z,7.86
2022-11-06T01:13:13.127Z,7.85
2022-11-06T01:15:45.899Z,7.80
2022-11-06T01:18:18.899Z,7.80
2022-11-06T01:20:51.554Z,7.77
2022-11-06T01:23:24.385Z,7.75
2022-11-06T01:26:07.193Z,7.77
2022-11-06T01:28:40.432Z,7.79
2022-11-06T01:31:15.579Z,7.80
2022-11-06T01:34:04.868Z,7.73
2022-11-06T01:36:39.659Z,7.70
2022-11-06T01:39:16.083Z,7.68
2022-11-06T01:41:51.937Z,7.66
2022-11-06T01:45:19.040Z,7.65
2022-11-06T01:47:52.176Z,7.61
2022-11-06T01:50:26.011Z,7.62
2022-11-06T01:53:01.279Z,7.64
2022-11-06T01:55:41.209Z,7.65
2022-11-06T01:58:17.498Z,7.66
2022-11-06T02:00:50.628Z,7.62
2022-11-06T02:03:23.268Z,7.65
2022-11-06T02:05:58.418Z,7.61
2022-11-06T02:08:31.728Z,7.61
2022-11-06T02:11:04.448Z,7.63
2022-11-06T02:13:46.619Z,7.62
2022-11-06T02:16:27.618Z,7.60
2022-11-06T02:19:32.028Z,7.53
2022-11-06T02:22:20.699Z,7.56
2022-11-06T02:25:18.037Z,7.54
2022-11-06T02:27:55.634Z,7.57
2022-11-06T02:30:28.479Z,7.56
2022-11-06T02:33:03.309Z,7.55
2022-11-06T02:35:42.418Z,7.54
2022-11-06T02:38:19.297Z,7.51
2022-11-06T02:40:58.605Z,7.48
2022-11-06T02:43:37.316Z,7.48
2022-11-06T02:46:25.740Z,7.46
2022-11-06T02:49:04.125Z,7.43
2022-11-06T02:51:42.769Z,7.43
2022-11-06T02:54:17.505Z,7.43
2022-11-06T02:56:53.478Z,7.44
2022-11-06T02:59:33.097Z,7.42
2022-11-06T03:02:09.338Z,7.42
2022-11-06T03:04:47.949Z,7.36
2022-11-06T03:07:26.738Z,7.36
2022-11-06T03:09:59.717Z,7.36
2022-11-06T03:12:35.406Z,7.36
2022-11-06T03:15:20.477Z,7.36
2022-11-06T03:18:00.706Z,7.36
2022-11-06T03:20:37.737Z,7.36
2022-11-06T03:23:17.847Z,7.36
2022-11-06T03:25:57.320Z,7.35
2022-11-06T03:28:35.921Z,7.32
2022-11-06T03:31:16.919Z,7.35
2022-11-06T03:33:54.626Z,7.32
2022-11-06T03:36:31.007Z,7.28
2022-11-06T03:39:08.056Z,7.26
2022-11-06T03:41:48.548Z,7.25
2022-11-06T03:44:25.074Z,7.24
2022-11-06T03:47:01.279Z,7.22
2022-11-06T03:49:38.778Z,7.19
2022-11-06T03:52:16.560Z,7.14
2022-11-06T03:54:56.459Z,7.15
2022-11-06T03:57:35.578Z,7.12
2022-11-06T04:00:11.737Z,7.14
2022-11-06T04:02:53.604Z,7.11
2022-11-06T04:05:29.230Z,7.10
2022-11-06T04:08:19.219Z,7.07
2022-11-06T04:11:14.387Z,7.07
2022-11-06T04:14:02.194Z,7.08
2022-11-06T04:16:40.497Z,7.02
2022-11-06T04:19:18.548Z,7.02
2022-11-06T04:22:04.106Z,6.99
2022-11-06T04:25:06.418Z,7.00
2022-11-06T04:27:56.107Z,6.97
2022-11-06T04:30:32.027Z,6.95
2022-11-06T04:33:22.356Z,6.97
2022-11-06T04:36:03.958Z,6.95
2022-11-06T04:38:44.267Z,6.93
2022-11-06T04:41:22.318Z,6.93
2022-11-06T04:44:00.349Z,6.95
2022-11-06T04:46:39.818Z,6.96
2022-11-06T04:49:15.029Z,6.92
2022-11-06T04:51:50.128Z,6.92
2022-11-06T04:54:26.662Z,6.91
2022-11-06T04:57:02.681Z,6.90
2022-11-06T04:59:38.348Z,6.88
2022-11-06T05:02:12.026Z,6.90
2022-11-06T05:04:45.719Z,6.88
2022-11-06T05:07:16.948Z,6.80
2022-11-06T05:09:49.445Z,6.76
2022-11-06T05:12:22.358Z,6.80
2022-11-06T05:14:54.859Z,6.81
2022-11-06T05:17:31.514Z,6.81
2022-11-06T05:20:10.478Z,6.82
2022-11-06T05:23:02.207Z,6.85
2022-11-06T05:25:40.419Z,6.84
2022-11-06T05:28:13.419Z,6.88
2022-11-06T05:30:47.189Z,6.87
2022-11-06T05:33:22.887Z,6.86
2022-11-06T05:35:55.599Z,6.85
2022-11-06T05:38:30.720Z,6.86
2022-11-06T05:41:03.638Z,6.89
2022-11-06T05:43:39.127Z,6.86
2022-11-06T05:46:29.768Z,6.85
2022-11-06T05:49:04.324Z,6.84
2022-11-06T05:51:36.849Z,6.84
2022-11-06T05:54:11.100Z,6.82
2022-11-06T05:56:44.138Z,6.83
2022-11-06T05:59:16.708Z,6.81
2022-11-06T06:01:49.214Z,6.81
2022-11-06T06:04:21.792Z,6.82
2022-11-06T06:06:55.028Z,6.82
2022-11-06T06:09:27.900Z,6.84
2022-11-06T06:12:00.918Z,6.85
2022-11-06T06:14:56.237Z,6.84
2022-11-06T06:17:29.128Z,6.85
2022-11-06T06:20:01.777Z,6.88
2022-11-06T06:22:34.540Z,6.90
2022-11-06T06:25:16.217Z,6.89
2022-11-06T06:27:55.970Z,6.92
2022-11-06T06:30:29.142Z,6.90
2022-11-06T06:33:08.304Z,6.93
2022-11-06T06:35:40.872Z,6.92
2022-11-06T06:38:13.475Z,6.94
2022-11-06T06:40:46.237Z,6.95
2022-11-06T06:43:18.906Z,6.96
2022-11-06T06:45:53.440Z,6.96
2022-11-06T06:48:25.899Z,6.97
2022-11-06T06:51:00.309Z,6.97
2022-11-06T06:53:35.071Z,7.03
2022-11-06T06:56:08.783Z,7.07
2022-11-06T06:58:41.378Z,7.09
2022-11-06T07:01:14.200Z,7.14
2022-11-06T07:03:46.781Z,7.17
2022-11-06T07:06:21.769Z,7.18
2022-11-06T07:08:59.059Z,7.20
2022-11-06T07:11:35.020Z,7.19
2022-11-06T07:14:07.849Z,7.18
2022-11-06T07:16:40.531Z,7.22
2022-11-06T07:19:13.471Z,7.22
2022-11-06T07:21:46.699Z,7.23
2022-11-06T07:24:19.386Z,7.21
2022-11-06T07:26:52.049Z,7.23
2022-11-06T07:29:24.548Z,7.26
2022-11-06T07:31:57.489Z,7.26
2022-11-06T07:34:30.061Z,7.25
2022-11-06T07:37:07.347Z,7.19
2022-11-06T07:39:40.478Z,7.22
2022-11-06T07:42:13.158Z,7.21
2022-11-06T07:45:00.462Z,7.21
2022-11-06T07:47:34.729Z,7.28
2022-11-06T07:50:08.619Z,7.29
2022-11-06T07:52:42.536Z,7.33
2022-11-06T07:55:15.378Z,7.37
2022-11-06T07:57:48.132Z,7.41
2022-11-06T08:00:21.470Z,7.41
2022-11-06T08:02:57.650Z,7.39
2022-11-06T08:05:30.702Z,7.44
2022-11-06T08:08:05.549Z,7.45
2022-11-06T08:10:40.868Z,7.43
2022-11-06T08:13:16.448Z,7.45
2022-11-06T08:15:50.657Z,7.50
2022-11-06T08:18:23.236Z,7.56
2022-11-06T08:20:56.389Z,7.58
2022-11-06T08:23:29.666Z,7.66
2022-11-06T08:26:01.946Z,7.68
2022-11-06T08:28:34.473Z,7.64
2022-11-06T08:31:10.911Z,7.74
2022-11-06T08:33:43.419Z,7.76
2022-11-06T08:36:17.477Z,7.80
2022-11-06T08:38:51.049Z,7.79
2022-11-06T08:41:21.699Z,7.74
2022-11-06T08:43:56.489Z,7.55
2022-11-06T08:46:29.139Z,7.63
2022-11-06T08:49:01.709Z,7.68
2022-11-06T08:51:35.948Z,7.63
2022-11-06T08:54:08.569Z,7.73
2022-11-06T08:56:41.198Z,7.82
2022-11-06T08:59:14.919Z,7.72
2022-11-06T09:01:45.816Z,7.69
2022-11-06T09:04:18.589Z,7.76
2022-11-06T09:06:51.329Z,7.88
2022-11-06T09:09:24.179Z,7.92
2022-11-06T09:11:56.829Z,7.96
2022-11-06T09:14:30.029Z,7.99
2022-11-06T09:17:04.699Z,8.04
2022-11-06T09:19:38.210Z,8.08
2022-11-06T09:22:08.979Z,8.04
2022-11-06T09:25:02.659Z,7.89
2022-11-06T09:27:34.709Z,7.64
2022-11-06T09:30:08.500Z,7.40
2022-11-06T09:32:46.841Z,7.46
2022-11-06T09:35:19.904Z,7.44
2022-11-06T09:37:53.226Z,7.42
2022-11-06T09:40:36.527Z,7.56
2022-11-06T09:43:58.112Z,7.71
2022-11-06T09:46:26.539Z,7.79
2022-11-06T09:49:07.381Z,7.92
2022-11-06T09:51:46.532Z,7.97
2022-11-06T09:54:24.328Z,7.98
2022-11-06T09:57:02.358Z,8.02
2022-11-06T09:59:37.798Z,8.09
2022-11-06T10:02:23.525Z,8.13
2022-11-06T10:05:04.459Z,8.16
2022-11-06T10:07:39.879Z,8.15
2022-11-06T10:10:19.068Z,8.14
2022-11-06T10:13:22.501Z,8.16
2022-11-06T10:16:03.809Z,8.10
2022-11-06T10:18:55.139Z,8.18
2022-11-06T10:21:36.519Z,8.25
2022-11-06T10:24:17.468Z,8.30
2022-11-06T10:27:00.354Z,8.36
2022-11-06T10:29:57.781Z,8.40
2022-11-06T10:32:58.351Z,8.43
2022-11-06T10:35:37.717Z,8.51
2022-11-06T10:38:16.597Z,8.51
2022-11-06T10:40:52.809Z,8.33
2022-11-06T10:43:32.939Z,8.17
2022-11-06T10:46:14.391Z,8.20
2022-11-06T10:48:51.600Z,8.26
2022-11-06T10:51:40.437Z,8.16
2022-11-06T10:54:28.089Z,8.17
2022-11-06T10:57:27.319Z,8.09
2022-11-06T11:00:00.749Z,8.14
2022-11-06T11:02:37.092Z,7.98
2022-11-06T11:05:19.717Z,8.05
2022-11-06T11:07:53.127Z,8.09
2022-11-06T11:10:34.548Z,8.04
2022-11-06T11:13:21.494Z,8.12
2022-11-06T11:15:54.291Z,8.16
2022-11-06T11:18:31.680Z,8.21
2022-11-06T11:21:24.669Z,8.35
2022-11-06T11:24:13.566Z,8.45
2022-11-06T11:26:49.758Z,8.48
2022-11-06T11:29:30.128Z,8.55
2022-11-06T11:32:07.528Z,8.62
2022-11-06T11:34:51.363Z,8.59
2022-11-06T11:37:41.325Z,8.45
2022-11-06T11:40:37.349Z,8.61
2022-11-06T11:43:29.696Z,8.70
2022-11-06T11:46:23.418Z,8.71
2022-11-06T11:48:58.221Z,8.75
2022-11-06T11:51:35.068Z,8.68
2022-11-06T11:54:21.400Z,8.73
2022-11-06T11:57:10.042Z,8.71
2022-11-06T11:59:49.169Z,8.66
2022-11-06T12:02:27.991Z,8.59
2022-11-06T12:05:04.299Z,8.34
2022-11-06T12:07:45.788Z,8.39
2022-11-06T12:10:28.749Z,8.42
2022-11-06T12:13:04.350Z,8.40
2022-11-06T12:15:48.758Z,8.41
2022-11-06T12:18:25.129Z,8.17
2022-11-06T12:21:04.059Z,8.14
2022-11-06T12:23:44.534Z,8.05
2022-11-06T12:26:27.721Z,8.06
2022-11-06T12:29:06.826Z,8.11
2022-11-06T12:31:42.709Z,8.14
2022-11-06T12:34:25.899Z,8.22
2022-11-06T12:37:12.478Z,8.28
2022-11-06T12:39:51.277Z,8.32
2022-11-06T12:42:27.338Z,8.32
2022-11-06T12:44:59.898Z,8.35
2022-11-06T12:47:50.888Z,8.29
2022-11-06T12:50:41.579Z,8.25
2022-11-06T12:53:32.457Z,8.22
2022-11-06T12:56:15.857Z,8.13
2022-11-06T12:59:03.338Z,8.18
2022-11-06T13:01:54.035Z,8.23
2022-11-06T13:04:37.285Z,8.07
2022-11-06T13:07:45.308Z,8.00
2022-11-06T13:10:41.279Z,7.92
2022-11-06T13:13:37.127Z,7.83
2022-11-06T13:16:22.696Z,7.89
2022-11-06T13:19:00.779Z,7.94
2022-11-06T13:21:40.638Z,7.88
2022-11-06T13:24:19.224Z,7.87
2022-11-06T13:26:56.448Z,7.99
2022-11-06T13:29:29.438Z,8.10
2022-11-06T13:32:04.819Z,8.09
2022-11-06T13:34:40.038Z,7.91
2022-11-06T13:37:18.799Z,7.87
2022-11-06T13:39:56.378Z,7.98
2022-11-06T13:42:42.028Z,8.06
2022-11-06T13:45:19.308Z,8.10
2022-11-06T13:48:05.637Z,8.21
2022-11-06T13:50:48.877Z,8.29
2022-11-06T13:53:31.629Z,8.31
2022-11-06T13:56:18.383Z,8.37
2022-11-06T13:59:14.098Z,8.40
2022-11-06T14:01:55.889Z,8.35
2022-11-06T14:04:53.809Z,8.21
2022-11-06T14:07:28.818Z,8.10
2022-11-06T14:10:01.836Z,8.14
2022-11-06T14:12:35.969Z,8.19
2022-11-06T14:15:25.057Z,8.21
2022-11-06T14:18:01.219Z,8.25
2022-11-06T14:20:36.797Z,8.27
2022-11-06T14:23:49.528Z,8.27
2022-11-06T14:26:42.170Z,8.27
2022-11-06T14:29:57.788Z,8.27
2022-11-06T14:32:47.991Z,8.26
2022-11-06T14:35:52.926Z,8.19
2022-11-06T14:38:48.008Z,8.12
2022-11-06T14:41:59.217Z,8.06
2022-11-06T14:44:51.518Z,7.95
2022-11-06T14:47:36.117Z,7.84
2022-11-06T14:50:28.359Z,7.79
2022-11-06T14:53:08.053Z,7.76
2022-11-06T14:55:47.459Z,7.73
2022-11-06T14:58:24.168Z,7.67
2022-11-06T15:00:59.545Z,7.63
2022-11-06T15:03:44.788Z,7.54
2022-11-06T15:06:43.942Z,7.51
2022-11-06T15:09:37.397Z,7.40
2022-11-06T15:12:11.269Z,7.41
2022-11-06T15:15:09.139Z,7.38
2022-11-06T15:17:44.232Z,7.36
2022-11-06T15:20:26.830Z,7.32
2022-11-06T15:23:16.529Z,7.26
2022-11-06T15:26:06.128Z,7.21
2022-11-06T15:28:46.931Z,7.17
2022-11-06T15:31:22.450Z,7.12
2022-11-06T15:34:01.154Z,7.08
2022-11-06T15:36:40.437Z,7.03
2022-11-06T15:39:41.090Z,7.01
2022-11-06T15:42:18.896Z,6.97
2022-11-06T15:44:52.478Z,6.92
2022-11-06T15:47:27.078Z,6.87
2022-11-06T15:50:19.005Z,6.80
2022-11-06T15:52:53.676Z,6.68
2022-11-06T15:55:33.168Z,6.61
2022-11-06T15:58:29.573Z,6.58
2022-11-06T16:01:04.739Z,6.56
2022-11-06T16:03:50.508Z,6.54
2022-11-06T16:06:24.550Z,6.53
2022-11-06T16:08:58.670Z,6.45
2022-11-06T16:11:31.357Z,6.38
2022-11-06T16:14:04.116Z,6.48
2022-11-06T16:16:42.335Z,6.54
2022-11-06T16:19:29.559Z,6.56
2022-11-06T16:22:07.782Z,6.54
2022-11-06T16:24:47.208Z,6.47
2022-11-06T16:27:20.290Z,6.44
2022-11-06T16:29:58.180Z,6.38
2022-11-06T16:32:33.197Z,6.39
2022-11-06T16:35:26.995Z,6.41
2022-11-06T16:38:40.561Z,6.46
2022-11-06T16:41:34.789Z,6.41
2022-11-06T16:44:31.022Z,6.44
2022-11-06T16:47:19.819Z,6.43
2022-11-06T16:50:02.990Z,6.50
2022-11-06T16:52:39.207Z,6.59
2022-11-06T16:55:28.810Z,6.65
2022-11-06T16:58:04.409Z,6.67
2022-11-06T17:00:37.301Z,6.72
2022-11-06T17:03:21.908Z,6.76
2022-11-06T17:06:00.670Z,6.82
2022-11-06T17:08:37.808Z,6.87
2022-11-06T17:11:23.769Z,6.90
2022-11-06T17:13:56.607Z,6.94
2022-11-06T17:16:32.700Z,6.92
2022-11-06T17:19:07.366Z,6.93
2022-11-06T17:21:40.161Z,6.93
2022-11-06T17:24:40.971Z,6.91
2022-11-06T17:27:05.649Z,7.01
2022-11-06T17:29:39.106Z,7.07
2022-11-06T17:32:11.778Z,7.09
2022-11-06T17:34:44.516Z,7.14
2022-11-06T17:37:22.287Z,7.17
2022-11-06T17:39:56.288Z,7.16
2022-11-06T17:42:26.968Z,7.14
2022-11-06T17:44:59.868Z,7.10
2022-11-06T17:47:32.656Z,7.12
2022-11-06T17:50:05.573Z,7.12
2022-11-06T17:52:38.157Z,7.15
2022-11-06T17:55:11.525Z,7.20
2022-11-06T17:57:44.147Z,7.23
2022-11-06T18:00:21.269Z,7.26
2022-11-06T18:03:01.401Z,7.31
2022-11-06T18:05:36.288Z,7.35
2022-11-06T18:08:14.036Z,7.37
2022-11-06T18:10:54.810Z,7.38
2022-11-06T18:13:27.418Z,7.43
2022-11-06T18:16:00.279Z,7.46
2022-11-06T18:18:33.012Z,7.46
2022-11-06T18:21:11.266Z,7.48
2022-11-06T18:23:43.861Z,7.51
2022-11-06T18:26:16.420Z,7.52
2022-11-06T18:28:49.318Z,7.51
2022-11-06T18:31:22.655Z,7.51
2022-11-06T18:33:56.058Z,7.49
2022-11-06T18:36:31.829Z,7.48
2022-11-06T18:39:06.130Z,7.51
2022-11-06T18:41:41.718Z,7.54
2022-11-06T18:44:14.299Z,7.52
2022-11-06T18:46:46.825Z,7.53
2022-11-06T18:49:19.409Z,7.55
2022-11-06T18:51:52.347Z,7.57
2022-11-06T18:54:30.440Z,7.58
2022-11-06T18:57:02.924Z,7.56
2022-11-06T18:59:35.966Z,7.57
2022-11-06T19:02:08.607Z,7.57
2022-11-06T19:04:41.554Z,7.57
2022-11-06T19:07:14.259Z,7.61
2022-11-06T19:09:46.799Z,7.62
2022-11-06T19:12:20.038Z,7.63
2022-11-06T19:14:52.829Z,7.68
2022-11-06T19:17:25.506Z,7.64
2022-11-06T19:19:58.477Z,7.67
2022-11-06T19:22:32.221Z,7.64
2022-11-06T19:25:05.334Z,7.60
2022-11-06T19:27:41.051Z,7.60
2022-11-06T19:30:15.731Z,7.58
2022-11-06T19:32:48.581Z,7.60
2022-11-06T19:35:22.441Z,7.60
2022-11-06T19:37:55.065Z,7.66
2022-11-06T19:40:29.669Z,7.63
2022-11-06T19:43:05.018Z,7.64
2022-11-06T19:45:39.075Z,7.58
2022-11-06T19:48:11.887Z,7.60
2022-11-06T19:51:05.480Z,7.60
2022-11-06T19:53:38.789Z,7.62
2022-11-06T19:56:17.289Z,7.69
2022-11-06T19:58:51.168Z,7.67
2022-11-06T20:01:24.350Z,7.62
2022-11-06T20:03:56.980Z,7.63
2022-11-06T20:06:30.179Z,7.64
2022-11-06T20:09:03.935Z,7.63
2022-11-06T20:11:36.656Z,7.66
2022-11-06T20:14:12.419Z,7.66
2022-11-06T20:16:45.059Z,7.64
2022-11-06T20:19:18.030Z,7.67
2022-11-06T20:21:50.717Z,7.63
2022-11-06T20:24:24.828Z,7.58
2022-11-06T20:26:57.308Z,7.61
2022-11-06T20:29:30.058Z,7.62
2022-11-06T20:32:02.828Z,7.60
2022-11-06T20:34:35.951Z,7.62
2022-11-06T20:37:09.359Z,7.61
2022-11-06T20:39:44.199Z,7.60
2022-11-06T20:42:19.980Z,7.61
2022-11-06T20:44:53.697Z,7.60
2022-11-06T20:47:27.415Z,7.57
2022-11-06T20:50:05.583Z,7.62
2022-11-06T20:52:40.679Z,7.63
2022-11-06T20:55:13.827Z,7.57
2022-11-06T20:57:46.751Z,7.65
2022-11-06T21:00:20.653Z,7.64
2022-11-06T21:02:58.955Z,7.61
2022-11-06T21:05:38.137Z,7.61
2022-11-06T21:08:11.727Z,7.61
2022-11-06T21:10:55.207Z,7.66
2022-11-06T21:13:28.677Z,7.68
2022-11-06T21:16:03.338Z,7.71
2022-11-06T21:18:39.610Z,7.73
2022-11-06T21:21:18.018Z,7.67
2022-11-06T21:23:51.516Z,7.64
2022-11-06T21:26:25.723Z,7.62
2022-11-06T21:29:00.447Z,7.62
2022-11-06T21:31:34.623Z,7.60
2022-11-06T21:34:07.578Z,7.68
2022-11-06T21:36:40.803Z,7.66
2022-11-06T21:39:15.659Z,7.64
2022-11-06T21:41:49.368Z,7.68
2022-11-06T21:44:22.231Z,7.66
2022-11-06T21:46:55.079Z,7.65
2022-11-06T21:49:27.967Z,7.60
2022-11-06T21:52:25.095Z,7.58
2022-11-06T21:55:17.628Z,7.57
2022-11-06T21:57:50.968Z,7.52
2022-11-06T22:00:23.989Z,7.52
2022-11-06T22:02:58.379Z,7.51
2022-11-06T22:05:31.147Z,7.45
2022-11-06T22:08:03.736Z,7.45
2022-11-06T22:10:36.836Z,7.44
2022-11-06T22:13:09.460Z,7.41
2022-11-06T22:15:43.829Z,7.43
2022-11-06T22:18:16.909Z,7.47
2022-11-06T22:20:51.019Z,7.45
2022-11-06T22:23:23.620Z,7.47
2022-11-06T22:25:56.198Z,7.46
2022-11-06T22:28:28.758Z,7.47
2022-11-06T22:31:01.720Z,7.46
2022-11-06T22:33:34.849Z,7.45
2022-11-06T22:36:09.926Z,7.43
2022-11-06T22:38:44.868Z,7.48
2022-11-06T22:41:19.301Z,7.51
2022-11-06T22:43:52.293Z,7.48
2022-11-06T22:46:26.111Z,7.48
2022-11-06T22:48:57.828Z,7.47
2022-11-06T22:51:31.806Z,7.43
2022-11-06T22:54:06.608Z,7.49
2022-11-06T22:56:39.169Z,7.53
2022-11-06T22:59:14.109Z,7.52
2022-11-06T23:01:46.704Z,7.52
2022-11-06T23:04:19.638Z,7.52
2022-11-06T23:06:52.381Z,7.50
2022-11-06T23:09:25.068Z,7.53
2022-11-06T23:11:57.601Z,7.50
2022-11-06T23:14:30.675Z,7.49
2022-11-06T23:17:04.620Z,7.47
2022-11-06T23:19:37.239Z,7.49
2022-11-06T23:22:27.036Z,7.48
2022-11-06T23:24:59.899Z,7.45
2022-11-06T23:27:32.840Z,7.44
2022-11-06T23:30:06.259Z,7.44
2022-11-06T23:32:40.109Z,7.43
2022-11-06T23:35:16.948Z,7.39
2022-11-06T23:37:49.889Z,7.42
2022-11-06T23:40:22.488Z,7.37
2022-11-06T23:42:57.948Z,7.33
2022-11-06T23:45:47.867Z,7.36
2022-11-06T23:48:20.806Z,7.38
2022-11-06T23:50:53.679Z,7.29
2022-11-06T23:53:26.179Z,7.30
2022-11-06T23:55:58.749Z,7.27
2022-11-06T23:58:31.449Z,7.24
